Time;durP1;ratioP1;P1;durP2;ratioP2;P2;SDS_P1;SDS_P2;PMS_P1;PMS_P2;Temp;Humidity;BMP_temperature;BMP_pressure;BME280_temperature;BME280_humidity;BME280_pressure;Samples;Min_cycle;Max_cycle;Signal;HPM_P1;HPM_P2
2024/02/25 00:02:18;;;;;;;1.60;1.02;;;17.40;67.20;;;;;;5897796;24;20180;-85
2024/02/25 00:04:54;;;;;;;0.80;0.80;;;17.30;67.20;;;;;;5897704;24;20901;-85
2024/02/25 00:07:25;;;;;;;0.77;0.77;;;17.30;67.20;;;;;;5898230;24;20161;-85
2024/02/25 00:09:53;;;;;;;1.13;1.00;;;17.40;67.20;;;;;;5919815;24;20157;-83
2024/02/25 00:13:08;;;;;;;1.10;0.93;;;17.30;67.00;;;;;;5892836;24;20194;-84
2024/02/25 00:16:00;;;;;;;0.85;0.75;;;17.30;67.00;;;;;;5843770;24;20162;-84
2024/02/25 00:18:35;;;;;;;1.02;0.93;;;17.40;67.00;;;;;;5840723;24;20169;-87
2024/02/25 00:21:11;;;;;;;0.80;0.80;;;17.30;67.10;;;;;;5935186;24;20206;-84
2024/02/25 00:23:37;;;;;;;1.40;0.98;;;17.30;66.90;;;;;;5952702;24;20166;-84
2024/02/25 00:26:09;;;;;;;1.08;1.00;;;17.30;67.00;;;;;;5942676;24;20165;-84
2024/02/25 00:28:40;;;;;;;0.80;0.80;;;17.40;67.20;;;;;;5880491;24;20192;-85
2024/02/25 00:31:07;;;;;;;0.75;0.75;;;17.30;67.30;;;;;;5858361;24;20182;-86
2024/02/25 00:33:45;;;;;;;0.90;0.90;;;17.30;67.20;;;;;;5856409;24;20187;-86
2024/02/25 00:36:24;;;;;;;1.27;0.90;;;17.30;67.30;;;;;;5828973;24;20192;-85
2024/02/25 00:39:05;;;;;;;0.93;0.73;;;17.30;67.30;;;;;;6029359;23;20244;-85
2024/02/25 00:41:47;;;;;;;1.42;0.90;;;17.30;67.40;;;;;;6041644;23;20153;-85
2024/02/25 00:44:36;;;;;;;1.10;1.00;;;17.30;67.40;;;;;;6094456;23;20160;-85
2024/02/25 00:47:33;;;;;;;1.10;0.82;;;17.30;68.20;;;;;;6092835;23;20172;-85
2024/02/25 00:50:20;;;;;;;1.05;0.73;;;17.20;67.20;;;;;;6063187;23;20164;-85
2024/02/25 00:52:53;;;;;;;1.00;0.90;;;17.30;67.30;;;;;;6079880;23;20161;-85
2024/02/25 00:55:56;;;;;;;1.05;0.95;;;17.30;67.30;;;;;;6136068;23;20174;-85
2024/02/25 00:59:12;;;;;;;0.77;0.77;;;17.30;67.30;;;;;;6093075;23;20187;-85
2024/02/25 01:02:30;;;;;;;0.95;0.88;;;17.30;67.40;;;;;;6101162;23;20514;-86
2024/02/25 01:05:18;;;;;;;2.13;1.20;;;17.30;67.30;;;;;;5923229;24;20161;-85
2024/02/25 01:08:08;;;;;;;0.98;0.90;;;17.20;67.20;;;;;;5878112;24;20271;-85
2024/02/25 01:11:06;;;;;;;1.20;1.10;;;17.30;67.10;;;;;;5874740;24;20168;-85
2024/02/25 01:13:42;;;;;;;0.93;0.90;;;17.30;67.30;;;;;;5872862;24;20161;-85
2024/02/25 01:16:42;;;;;;;1.52;1.10;;;17.30;67.10;;;;;;5901727;24;20153;-85
2024/02/25 01:19:08;;;;;;;1.15;1.05;;;17.20;67.20;;;;;;5924020;24;20161;-85
2024/02/25 01:21:53;;;;;;;0.95;0.90;;;17.30;67.30;;;;;;5878494;24;20208;-85
2024/02/25 01:24:58;;;;;;;1.15;1.00;;;17.30;67.30;;;;;;5927617;24;20246;-85
2024/02/25 01:27:39;;;;;;;1.55;0.85;;;17.30;67.60;;;;;;5842370;24;20182;-85
2024/02/25 01:30:14;;;;;;;1.10;0.80;;;17.20;67.30;;;;;;5763800;24;20207;-84
2024/02/25 01:33:09;;;;;;;1.08;0.93;;;17.20;67.30;;;;;;5716378;25;20168;-85
2024/02/25 01:35:41;;;;;;;1.02;0.93;;;17.20;67.40;;;;;;5712106;25;20166;-85
2024/02/25 01:38:13;;;;;;;1.23;0.98;;;17.20;67.30;;;;;;5668560;25;20222;-85
2024/02/25 01:41:15;;;;;;;1.10;1.00;;;17.30;67.20;;;;;;5717242;25;20174;-85
2024/02/25 01:44:00;;;;;;;1.83;1.30;;;17.20;67.40;;;;;;5842691;24;20541;-85
2024/02/25 01:46:45;;;;;;;1.25;1.00;;;17.20;67.30;;;;;;5830833;24;20183;-85
2024/02/25 01:49:45;;;;;;;2.45;1.00;;;17.20;67.40;;;;;;5847948;24;20244;-85
2024/02/25 01:52:24;;;;;;;;;;;;;;;;;;;;;
2024/02/25 01:55:09;;;;;;;1.05;0.85;;;17.30;67.30;;;;;;5840932;24;20968;-84
2024/02/25 01:57:52;;;;;;;1.00;0.90;;;17.20;67.30;;;;;;5844533;24;20221;-85
2024/02/25 02:00:29;;;;;;;0.88;0.88;;;17.20;66.90;;;;;;5836379;24;20169;-85
2024/02/25 02:03:02;;;;;;;0.88;0.80;;;17.30;67.30;;;;;;5869793;24;20162;-86
2024/02/25 02:05:28;;;;;;;1.30;0.82;;;17.30;67.00;;;;;;6008076;23;20237;-85
2024/02/25 02:08:44;;;;;;;1.05;0.95;;;17.20;67.30;;;;;;6055299;23;20216;-85
2024/02/25 02:11:35;;;;;;;1.10;1.00;;;17.20;67.30;;;;;;5993626;23;20636;-85
2024/02/25 02:14:36;;;;;;;;;;;;;;;;;;;;;
2024/02/25 02:17:21;;;;;;;1.58;1.00;;;17.20;67.30;;;;;;5914378;24;20231;-84
2024/02/25 02:19:57;;;;;;;1.10;1.00;;;17.20;67.60;;;;;;5873918;24;20169;-85
2024/02/25 02:22:51;;;;;;;1.08;0.90;;;17.10;68.30;;;;;;5896666;24;20254;-84
2024/02/25 02:25:58;;;;;;;1.42;1.05;;;17.20;67.60;;;;;;5923359;24;20160;-85
2024/02/25 02:28:48;;;;;;;1.52;1.10;;;17.20;67.60;;;;;;5853336;24;20560;-85
2024/02/25 02:31:26;;;;;;;2.40;1.30;;;17.10;67.50;;;;;;5847586;24;20161;-85
2024/02/25 02:34:12;;;;;;;1.40;1.17;;;17.10;67.30;;;;;;5869313;24;20162;-85
2024/02/25 02:36:54;;;;;;;1.85;1.08;;;17.10;67.60;;;;;;5876207;24;20187;-85
2024/02/25 02:39:20;;;;;;;1.13;0.98;;;17.10;67.60;;;;;;5905639;24;20211;-86
2024/02/25 02:41:48;;;;;;;1.27;0.93;;;17.10;67.70;;;;;;5904820;24;20165;-85
2024/02/25 02:47:40;;;;;;;1.50;1.40;;;17.10;67.60;;;;;;5936832;24;20243;-85
2024/02/25 02:50:12;;;;;;;1.27;1.00;;;17.10;67.60;;;;;;5990597;23;20178;-85
2024/02/25 02:52:48;;;;;;;1.48;1.08;;;17.10;67.60;;;;;;5873894;24;20206;-85
2024/02/25 02:55:14;;;;;;;1.33;1.10;;;17.20;67.70;;;;;;5903656;24;20589;-85
2024/02/25 02:57:40;;;;;;;1.35;1.20;;;17.20;67.60;;;;;;5925440;24;20217;-85
2024/02/25 03:00:14;;;;;;;1.42;1.15;;;17.10;67.60;;;;;;5925768;24;20189;-84
2024/02/25 03:02:50;;;;;;;1.75;1.13;;;17.20;67.40;;;;;;5897496;24;20268;-85
2024/02/25 03:05:39;;;;;;;1.58;1.00;;;17.10;67.20;;;;;;5850268;24;20159;-85
2024/02/25 03:08:44;;;;;;;0.95;0.80;;;17.20;67.50;;;;;;5866724;24;20186;-84
2024/02/25 03:17:43;;;;;;;1.10;1.00;;;17.20;67.40;;;;;;5808155;24;20163;-84
2024/02/25 03:21:11;;;;;;;1.83;1.20;;;17.10;67.10;;;;;;5834344;24;20159;-85
2024/02/25 03:23:40;;;;;;;1.65;1.08;;;17.10;67.20;;;;;;5901582;24;20503;-85
2024/02/25 03:26:56;;;;;;;1.20;1.08;;;17.10;67.30;;;;;;5884565;24;20164;-85
2024/02/25 03:29:22;;;;;;;1.00;0.90;;;17.10;67.00;;;;;;5910661;24;20189;-85
2024/02/25 03:31:53;;;;;;;1.13;1.00;;;17.10;67.00;;;;;;5865267;24;20163;-85
2024/02/25 03:34:42;;;;;;;1.05;0.95;;;17.10;67.20;;;;;;5856146;24;20197;-85
2024/02/25 03:37:45;;;;;;;;;;;;;;;;;;;;;
2024/02/25 03:40:23;;;;;;;1.65;1.10;;;17.10;67.60;;;;;;5874505;24;20161;-85
2024/02/25 03:43:17;;;;;;;1.70;1.23;;;17.10;68.30;;;;;;5948422;24;20232;-85
2024/02/25 03:45:48;;;;;;;1.48;1.30;;;17.00;67.20;;;;;;5897512;24;20488;-84
2024/02/25 03:48:18;;;;;;;1.35;1.20;;;17.10;67.60;;;;;;5967819;24;20370;-85
2024/02/25 03:51:12;;;;;;;1.45;1.27;;;17.10;67.40;;;;;;6033127;23;20153;-84
2024/02/25 03:53:55;;;;;;;1.13;1.00;;;17.10;67.40;;;;;;6051960;23;20231;-85
2024/02/25 03:56:53;;;;;;;1.25;1.15;;;17.10;67.40;;;;;;6053271;23;20537;-85
2024/02/25 03:59:35;;;;;;;1.13;1.02;;;17.10;67.50;;;;;;6037121;23;20986;-85
2024/02/25 04:02:41;;;;;;;1.42;1.20;;;17.10;67.40;;;;;;6037358;23;20158;-85
2024/02/25 04:06:11;;;;;;;1.80;1.23;;;17.00;67.40;;;;;;5869542;24;20531;-84
2024/02/25 04:08:50;;;;;;;1.15;1.05;;;17.10;67.60;;;;;;5873595;24;20196;-85
2024/02/25 04:11:30;;;;;;;1.10;1.00;;;17.10;67.40;;;;;;5870429;24;20162;-85
2024/02/25 04:13:59;;;;;;;1.58;1.10;;;17.00;67.40;;;;;;5848422;24;20162;-85
2024/02/25 04:16:47;;;;;;;1.38;1.25;;;17.00;67.40;;;;;;5848253;24;20162;-85
2024/02/25 04:19:13;;;;;;;2.10;1.30;;;17.10;67.40;;;;;;5882823;24;20169;-85
2024/02/25 04:21:42;;;;;;;1.50;1.20;;;17.00;67.40;;;;;;5896661;24;20217;-85
2024/02/25 04:24:27;;;;;;;2.15;1.40;;;17.10;67.40;;;;;;5898207;24;20165;-86
2024/02/25 04:27:15;;;;;;;1.15;1.00;;;17.10;67.50;;;;;;5875010;24;20157;-85
2024/02/25 04:30:13;;;;;;;0.90;0.90;;;17.00;67.40;;;;;;5871195;24;20194;-84
2024/02/25 04:32:52;;;;;;;1.02;0.93;;;17.10;67.40;;;;;;5877802;24;20479;-85
2024/02/25 04:35:31;;;;;;;1.13;1.00;;;17.10;67.20;;;;;;5879056;24;20161;-85
2024/02/25 04:38:12;;;;;;;1.48;1.17;;;17.10;67.40;;;;;;5907149;24;20187;-85
2024/02/25 04:40:53;;;;;;;1.00;0.90;;;17.10;67.40;;;;;;5967257;23;20164;-86
2024/02/25 04:46:50;;;;;;;1.15;0.93;;;17.00;67.20;;;;;;5979883;24;20163;-85
2024/02/25 04:49:20;;;;;;;1.20;1.10;;;17.00;68.20;;;;;;5929573;24;20528;-85
2024/02/25 04:52:00;;;;;;;1.45;1.20;;;17.00;67.10;;;;;;5929381;24;20183;-84
2024/02/25 04:54:47;;;;;;;1.30;1.13;;;17.00;67.20;;;;;;5959033;24;20213;-84
2024/02/25 04:57:36;;;;;;;1.73;1.10;;;17.00;67.20;;;;;;5926288;24;20159;-84
2024/02/25 05:00:10;;;;;;;1.35;1.20;;;17.00;67.30;;;;;;5958154;24;20155;-85
2024/02/25 05:02:44;;;;;;;0.93;0.82;;;17.10;67.30;;;;;;6002396;23;20158;-85
2024/02/25 05:05:13;;;;;;;1.40;1.10;;;17.10;67.40;;;;;;6007383;23;20153;-85
2024/02/25 05:08:03;;;;;;;2.17;1.30;;;17.00;67.40;;;;;;6031986;23;20189;-85
2024/02/25 05:10:32;;;;;;;1.63;1.10;;;17.00;67.40;;;;;;5988215;23;20532;-84
2024/02/25 05:13:26;;;;;;;1.13;1.02;;;17.00;67.10;;;;;;6006618;23;20925;-85
2024/02/25 05:15:58;;;;;;;1.40;1.15;;;17.00;67.10;;;;;;6005255;23;20155;-85
2024/02/25 05:18:47;;;;;;;1.20;1.10;;;17.00;67.20;;;;;;5962435;23;20185;-85
2024/02/25 05:21:30;;;;;;;1.10;0.90;;;17.00;67.20;;;;;;5936233;24;20694;-85
2024/02/25 05:23:58;;;;;;;1.60;1.10;;;17.00;67.10;;;;;;5998284;23;20253;-85
2024/02/25 05:26:52;;;;;;;1.10;1.00;;;17.10;67.20;;;;;;5972401;24;20233;-85
2024/02/25 05:29:36;;;;;;;1.15;1.05;;;17.10;67.30;;;;;;5950249;24;20191;-84
2024/02/25 05:32:02;;;;;;;0.98;0.90;;;17.00;67.10;;;;;;5946293;24;20156;-86
2024/02/25 05:34:30;;;;;;;1.20;1.08;;;17.00;67.10;;;;;;5919539;24;20162;-85
2024/02/25 05:37:07;;;;;;;1.75;1.08;;;17.00;67.10;;;;;;5892219;24;20206;-85
2024/02/25 05:39:46;;;;;;;1.92;1.00;;;17.00;67.30;;;;;;5868725;24;20543;-85
2024/02/25 05:42:22;;;;;;;1.70;1.02;;;17.00;67.20;;;;;;5891907;24;20165;-84
2024/02/25 05:45:12;;;;;;;;;;;;;;;;;;;;;
2024/02/25 05:47:47;;;;;;;1.48;1.35;;;17.00;67.20;;;;;;5874332;24;20257;-84
2024/02/25 05:50:46;;;;;;;1.15;1.05;;;17.00;67.20;;;;;;5891797;24;20158;-85
2024/02/25 05:53:21;;;;;;;1.52;1.20;;;17.00;67.20;;;;;;5884512;24;20162;-84
2024/02/25 05:55:56;;;;;;;1.15;1.00;;;17.00;67.20;;;;;;5822181;24;20162;-84
2024/02/25 05:58:22;;;;;;;1.27;1.10;;;17.00;67.20;;;;;;5905091;24;20218;-85
2024/02/25 06:00:48;;;;;;;1.92;1.20;;;17.00;67.40;;;;;;5938541;24;20598;-85
2024/02/25 06:03:25;;;;;;;1.38;1.25;;;17.00;67.10;;;;;;5927310;24;20160;-84
2024/02/25 06:06:11;;;;;;;1.98;1.30;;;17.00;67.20;;;;;;5899829;24;20199;-85
2024/02/25 06:08:37;;;;;;;1.80;1.30;;;17.00;66.60;;;;;;5938391;23;21005;-84
2024/02/25 06:11:09;;;;;;;1.20;1.10;;;17.10;67.00;;;;;;5955464;24;20230;-84
2024/02/25 06:13:37;;;;;;;1.80;1.10;;;17.00;67.00;;;;;;5979162;23;20547;-84
2024/02/25 06:16:23;;;;;;;;;;;;;;;;;;;;;
2024/02/25 06:18:53;;;;;;;1.58;1.05;;;17.00;67.00;;;;;;5981523;23;20245;-84
2024/02/25 06:21:19;;;;;;;1.40;1.10;;;17.00;67.10;;;;;;5985698;23;20314;-85
2024/02/25 06:23:56;;;;;;;1.50;1.13;;;17.00;67.80;;;;;;5951674;24;20167;-85
2024/02/25 06:26:24;;;;;;;1.20;1.10;;;17.10;66.90;;;;;;5951093;24;20242;-86
2024/02/25 06:28:54;;;;;;;2.03;1.17;;;17.10;66.90;;;;;;5952333;24;20191;-85
2024/02/25 06:31:28;;;;;;;1.95;1.30;;;17.00;66.90;;;;;;5938303;24;20165;-85
2024/02/25 06:33:59;;;;;;;2.45;1.30;;;17.00;66.80;;;;;;5925501;24;20152;-85
2024/02/25 06:36:55;;;;;;;1.55;1.10;;;17.00;67.00;;;;;;5949117;24;20156;-85
2024/02/25 06:39:24;;;;;;;1.85;1.25;;;17.00;66.70;;;;;;5925265;24;20211;-85
2024/02/25 06:41:54;;;;;;;3.20;1.30;;;17.10;66.80;;;;;;5936548;24;20160;-84
2024/02/25 06:44:23;;;;;;;1.63;1.20;;;17.00;66.90;;;;;;5897568;24;20169;-85
2024/02/25 06:46:53;;;;;;;1.13;1.02;;;17.10;66.80;;;;;;5876682;24;20161;-85
2024/02/25 06:52:44;;;;;;;1.80;1.25;;;17.10;66.80;;;;;;5927184;24;20168;-85
2024/02/25 06:55:18;;;;;;;1.20;1.10;;;17.10;66.90;;;;;;5926199;24;20268;-85
2024/02/25 06:57:46;;;;;;;1.88;1.20;;;17.00;66.80;;;;;;5925244;24;20165;-85
2024/02/25 07:00:20;;;;;;;1.63;1.40;;;17.10;66.50;;;;;;5970687;24;20218;-84
2024/02/25 07:02:46;;;;;;;1.35;1.23;;;17.10;66.60;;;;;;5947721;24;20160;-84
2024/02/25 07:05:36;;;;;;;1.45;1.17;;;17.10;66.40;;;;;;5954880;24;20231;-84
2024/02/25 07:08:08;;;;;;;1.45;1.25;;;17.10;66.60;;;;;;5981347;23;20213;-84
2024/02/25 07:10:55;;;;;;;1.67;1.20;;;17.10;66.50;;;;;;5998023;23;20160;-84
2024/02/25 07:13:27;;;;;;;1.35;1.20;;;17.10;66.60;;;;;;5999790;23;20176;-84
2024/02/25 07:15:59;;;;;;;1.40;1.20;;;17.10;66.70;;;;;;6040481;23;20171;-84
2024/02/25 07:18:31;;;;;;;1.50;1.40;;;17.10;66.70;;;;;;5985758;23;20545;-84
2024/02/25 07:21:16;;;;;;;1.30;1.20;;;17.10;66.60;;;;;;5982214;23;20259;-85
2024/02/25 07:23:44;;;;;;;1.27;1.17;;;17.10;66.70;;;;;;6004789;23;20166;-85
2024/02/25 07:26:17;;;;;;;1.27;1.15;;;17.10;66.80;;;;;;6009807;23;20218;-84
2024/02/25 07:28:43;;;;;;;1.35;1.17;;;17.10;66.70;;;;;;6023327;23;20269;-86
2024/02/25 07:31:21;;;;;;;1.35;1.20;;;17.10;66.80;;;;;;6057048;23;20198;-85
2024/02/25 07:33:52;;;;;;;1.55;1.35;;;17.10;66.50;;;;;;6030354;23;20149;-85
2024/02/25 07:36:46;;;;;;;1.45;1.20;;;17.10;66.70;;;;;;6012455;23;20169;-85
2024/02/25 07:40:06;;;;;;;1.35;1.20;;;17.10;66.70;;;;;;6012195;23;20241;-85
2024/02/25 07:42:43;;;;;;;1.60;1.10;;;17.20;66.50;;;;;;5979711;24;20170;-85
2024/02/25 07:45:17;;;;;;;1.50;1.40;;;17.10;66.50;;;;;;5958269;24;20163;-87
2024/02/25 08:05:12;;;;;;;2.15;1.20;;;17.40;65.50;;;;;;6115685;23;20226;-85
2024/02/25 08:08:45;;;;;;;1.63;1.10;;;17.40;65.30;;;;;;6071591;23;20571;-85
2024/02/25 08:11:31;;;;;;;3.65;1.20;;;17.50;64.50;;;;;;5928177;24;20156;-84
2024/02/25 08:14:10;;;;;;;2.53;1.20;;;17.70;63.60;;;;;;5931567;24;20251;-84
2024/02/25 08:16:45;;;;;;;1.63;1.25;;;17.70;63.90;;;;;;5945206;24;20159;-84
2024/02/25 08:19:31;;;;;;;1.92;1.45;;;17.70;63.90;;;;;;5883589;24;20244;-83
2024/02/25 08:22:00;;;;;;;1.50;1.25;;;17.80;62.90;;;;;;5926350;24;20211;-83
2024/02/25 08:24:46;;;;;;;2.17;1.60;;;17.80;63.20;;;;;;5927546;24;20167;-82
2024/02/25 08:27:15;;;;;;;2.88;1.63;;;17.90;62.60;;;;;;5904982;24;20634;-83
2024/02/25 08:29:45;;;;;;;1.70;1.30;;;17.90;62.70;;;;;;5927817;24;20250;-84
2024/02/25 08:32:27;;;;;;;2.20;1.40;;;17.90;62.30;;;;;;5928114;24;20161;-83
2024/02/25 08:34:58;;;;;;;2.10;1.27;;;18.00;62.30;;;;;;5906774;24;20637;-83
2024/02/25 08:37:52;;;;;;;5.85;1.58;;;17.90;63.60;;;;;;5878393;24;20183;-84
2024/02/25 08:40:21;;;;;;;1.20;1.10;;;17.80;63.70;;;;;;5891364;24;20171;-83
2024/02/25 08:42:58;;;;;;;1.50;1.33;;;17.70;63.60;;;;;;5910620;24;20167;-84
2024/02/25 08:46:00;;;;;;;1.70;1.40;;;17.70;63.70;;;;;;5997975;23;20154;-84
2024/02/25 08:48:25;;;;;;;1.92;1.23;;;17.70;63.50;;;;;;6078251;23;20642;-84
2024/02/25 08:50:54;;;;;;;2.67;1.30;;;17.70;64.00;;;;;;6073664;23;20268;-83
2024/02/25 08:53:20;;;;;;;3.78;1.40;;;17.80;63.70;;;;;;6072082;23;20215;-82
2024/02/25 08:55:57;;;;;;;2.70;1.30;;;17.80;63.50;;;;;;6039503;23;20154;-85
2024/02/25 08:58:34;;;;;;;1.83;1.00;;;17.80;63.70;;;;;;5988823;23;20158;-85
2024/02/25 09:01:40;;;;;;;6.38;1.38;;;17.90;63.90;;;;;;6011423;23;20165;-88
2024/02/25 09:04:10;;;;;;;2.65;1.20;;;18.00;63.80;;;;;;6035302;23;20168;-84
2024/02/25 09:06:36;;;;;;;1.98;1.67;;;18.00;63.40;;;;;;6038480;23;20158;-83
2024/02/25 09:09:18;;;;;;;3.42;1.30;;;18.10;63.10;;;;;;6084991;23;20279;-84
2024/02/25 09:48:50;;;;;;;;;;;;;;;;;;;;;
2024/02/25 09:51:37;;;;;;;7.43;1.60;;;18.00;63.00;;;;;;6133108;23;20657;-85
2024/02/25 12:22:45;;;;;;;3.63;1.25;;;18.20;64.00;;;;;;6283429;22;20543;-84
2024/02/25 13:27:39;;;;;;;3.65;1.33;;;18.30;62.90;;;;;;6296071;22;20218;-84
2024/02/25 13:30:12;;;;;;;3.08;1.30;;;18.20;63.20;;;;;;6168407;23;20183;-84
2024/02/25 13:32:41;;;;;;;2.00;1.25;;;18.30;62.50;;;;;;6189292;23;20657;-84
2024/02/25 13:35:17;;;;;;;3.45;1.17;;;18.30;62.80;;;;;;6127345;23;20154;-83
2024/02/25 13:38:19;;;;;;;4.28;1.30;;;18.30;63.70;;;;;;6104488;23;20182;-83
2024/02/25 13:40:59;;;;;;;5.35;1.58;;;18.20;64.40;;;;;;6044636;23;20227;-85
2024/02/25 13:43:40;;;;;;;4.10;1.15;;;18.20;64.90;;;;;;6021369;23;20153;-84
2024/02/25 13:46:14;;;;;;;3.72;1.20;;;18.20;64.70;;;;;;6014638;23;20324;-85
2024/02/25 13:48:49;;;;;;;2.58;1.30;;;18.20;64.30;;;;;;6039566;23;20186;-83
2024/02/25 14:33:25;;;;;;;3.15;1.23;;;18.40;62.20;;;;;;6272377;22;20230;-84
2024/02/25 14:35:51;;;;;;;2.08;1.00;;;18.40;63.30;;;;;;6201996;22;20184;-85
2024/02/25 14:39:00;;;;;;;;;;;;;;;;;;;;;
2024/02/25 14:41:43;;;;;;;1.92;1.42;;;18.40;62.50;;;;;;6181843;23;20229;-83
2024/02/25 14:44:46;;;;;;;2.63;1.20;;;18.40;62.40;;;;;;6074684;23;20176;-83
2024/02/25 14:47:55;;;;;;;2.83;1.20;;;18.40;61.90;;;;;;6124404;23;20159;-84
2024/02/25 15:04:55;;;;;;;3.65;1.02;;;18.40;62.70;;;;;;5796472;24;20163;-83
2024/02/25 15:11:07;;;;;;;2.10;0.90;;;18.40;64.00;;;;;;5711152;24;20184;-83
2024/02/25 15:14:08;;;;;;;2.67;1.00;;;18.30;63.80;;;;;;5695638;25;20174;-84
2024/02/25 15:17:06;;;;;;;3.90;1.25;;;18.30;64.90;;;;;;5694113;25;20176;-82
2024/02/25 15:19:42;;;;;;;3.70;1.15;;;18.30;65.10;;;;;;5690333;25;20179;-83
2024/02/25 15:22:18;;;;;;;2.58;1.25;;;18.30;64.30;;;;;;5711323;25;20504;-85
2024/02/25 15:38:42;;;;;;;1.25;0.90;;;18.40;62.90;;;;;;6024337;23;20254;-84
2024/02/25 15:41:16;;;;;;;2.63;1.13;;;18.40;62.80;;;;;;6019598;23;20198;-83
2024/02/25 15:47:03;;;;;;;3.55;1.52;;;18.40;63.00;;;;;;6066799;23;20204;-84
2024/02/25 15:49:49;;;;;;;3.55;1.52;;;18.40;62.60;;;;;;5958353;24;20209;-85
2024/02/25 15:52:31;;;;;;;6.85;1.20;;;18.50;62.70;;;;;;5935505;23;20199;-84
2024/02/25 15:55:04;;;;;;;4.60;1.35;;;18.40;63.20;;;;;;5937424;24;20219;-83
2024/02/25 15:57:30;;;;;;;5.32;1.30;;;18.40;63.20;;;;;;5937009;24;20264;-82
2024/02/25 15:59:59;;;;;;;5.82;1.65;;;18.50;63.10;;;;;;5960141;24;20926;-85
2024/02/25 16:02:33;;;;;;;4.97;1.50;;;18.50;63.50;;;;;;5955559;24;20156;-84
2024/02/25 16:05:01;;;;;;;11.35;1.73;;;18.40;62.70;;;;;;5978474;24;20159;-85
2024/02/25 16:08:08;;;;;;;;;;;;;;;;;;;;;
2024/02/25 16:10:57;;;;;;;15.85;1.60;;;18.40;63.00;;;;;;5854112;24;20252;-85
2024/02/25 16:13:45;;;;;;;2.55;1.30;;;18.50;62.70;;;;;;5839936;24;20167;-85
2024/02/25 16:20:19;;;;;;;5.47;1.50;;;18.50;63.30;;;;;;5794553;24;20164;-84
2024/02/25 16:22:28;;;;;;;6.22;1.15;;;18.50;62.90;;;;;;5825897;24;20163;-85
2024/02/25 16:25:40;;;;;;;4.03;1.48;;;18.60;62.10;;;;;;5785703;24;20160;-85
2024/02/25 16:28:32;;;;;;;4.60;1.65;;;18.50;62.50;;;;;;5743855;24;20161;-84
2024/02/25 16:31:03;;;;;;;6.32;1.25;;;18.60;62.10;;;;;;5740438;24;20156;-89
2024/02/25 16:33:33;;;;;;;4.57;1.23;;;18.60;62.70;;;;;;5770200;24;20171;-85
2024/02/25 16:36:42;;;;;;;;;;;;;;;;;;;;;
2024/02/25 16:46:46;;;;;;;5.65;1.00;;;18.50;63.20;;;;;;5844134;24;20170;-85
2024/02/25 16:56:55;;;;;;;10.98;1.70;;;18.60;61.70;;;;;;5776377;24;20207;-84
2024/02/25 18:06:55;;;;;;;12.27;1.65;;;18.50;63.10;;;;;;6277131;22;20139;-85
2024/02/25 18:09:28;;;;;;;7.50;1.48;;;18.50;62.50;;;;;;6216806;22;20705;-84
2024/02/25 18:12:47;;;;;;;9.25;2.42;;;18.60;62.60;;;;;;6197985;22;20825;-84
2024/02/25 18:15:22;;;;;;;10.90;1.75;;;18.50;62.50;;;;;;6245903;22;20194;-84
2024/02/25 18:17:54;;;;;;;9.50;1.55;;;18.50;63.40;;;;;;6173787;22;20156;-85
2024/02/25 18:20:36;;;;;;;9.40;1.50;;;18.50;62.90;;;;;;6147885;22;20231;-85
2024/02/25 18:23:29;;;;;;;7.13;1.80;;;18.50;63.90;;;;;;6226498;22;20204;-84
2024/02/25 18:46:47;;;;;;;9.98;1.77;;;18.50;63.50;;;;;;6212694;23;20209;-84
2024/02/25 18:49:13;;;;;;;6.78;1.48;;;18.50;63.10;;;;;;6074911;23;20188;-85
2024/02/25 18:51:48;;;;;;;6.28;1.30;;;18.50;63.20;;;;;;6050552;23;20160;-85
2024/02/25 19:15:49;;;;;;;6.30;1.30;;;18.50;63.50;;;;;;6152106;23;20187;-83
2024/02/25 19:25:12;;;;;;;6.55;1.20;;;18.50;63.50;;;;;;6183682;23;20172;-85
2024/02/25 19:27:42;;;;;;;6.50;1.25;;;18.50;63.10;;;;;;6105243;23;20151;-85
2024/02/25 19:30:29;;;;;;;7.13;1.48;;;18.50;63.50;;;;;;6079993;23;20315;-84
2024/02/25 19:32:57;;;;;;;8.25;1.13;;;18.50;62.70;;;;;;6129024;23;20136;-84
2024/02/25 19:35:23;;;;;;;9.48;1.13;;;18.40;63.20;;;;;;6069968;23;20237;-84
2024/02/25 19:37:55;;;;;;;9.07;1.30;;;18.50;63.60;;;;;;6071383;23;20179;-85
2024/02/25 19:40:29;;;;;;;7.93;1.77;;;18.50;63.30;;;;;;6095813;23;20539;-85
2024/02/25 19:42:55;;;;;;;4.90;1.00;;;18.50;63.10;;;;;;6092761;23;20225;-85
2024/02/25 19:49:29;;;;;;;4.13;0.98;;;18.50;63.50;;;;;;6092556;23;20211;-84
2024/02/25 19:52:11;;;;;;;4.45;1.27;;;18.40;63.20;;;;;;6093071;23;20184;-85
2024/02/25 19:54:43;;;;;;;3.42;1.13;;;18.50;64.00;;;;;;6035061;23;20157;-84
2024/02/25 19:57:18;;;;;;;4.15;1.33;;;18.40;63.90;;;;;;5984974;23;20159;-84
2024/02/25 19:59:56;;;;;;;4.32;0.90;;;18.40;63.40;;;;;;6036217;23;20233;-84
2024/02/25 20:02:49;;;;;;;3.85;1.00;;;18.40;63.60;;;;;;5980377;23;20238;-85
2024/02/25 20:05:48;;;;;;;;;;;;;;;;;;;;;
2024/02/25 20:15:20;;;;;;;3.92;1.20;;;18.40;63.70;;;;;;5888630;24;20570;-85
2024/02/25 20:17:47;;;;;;;3.75;1.17;;;18.40;64.00;;;;;;5897085;24;20521;-84
2024/02/25 20:20:26;;;;;;;5.78;1.20;;;18.30;63.80;;;;;;5924687;24;20156;-84
2024/02/25 20:22:51;;;;;;;2.33;1.00;;;18.40;63.50;;;;;;5853255;24;20161;-84
2024/02/25 20:25:29;;;;;;;6.90;1.40;;;18.30;64.10;;;;;;5851643;24;20162;-84
2024/02/25 20:28:08;;;;;;;2.58;1.20;;;18.40;63.60;;;;;;5876303;24;20165;-83
2024/02/25 20:30:37;;;;;;;2.45;0.90;;;18.40;63.80;;;;;;5879813;24;20164;-84
2024/02/25 20:33:18;;;;;;;3.45;1.10;;;18.30;64.10;;;;;;5916505;24;20545;-85
2024/02/25 20:35:49;;;;;;;4.50;1.30;;;18.30;64.10;;;;;;5922549;24;20160;-85
2024/02/25 20:39:07;;;;;;;2.97;1.23;;;18.30;63.90;;;;;;5961883;23;20159;-85
2024/02/25 20:41:37;;;;;;;2.88;0.88;;;18.30;63.50;;;;;;6024137;23;20232;-84
2024/02/25 20:44:12;;;;;;;1.63;0.82;;;18.40;63.80;;;;;;6007989;23;20158;-84
2024/02/25 20:47:02;;;;;;;2.97;1.02;;;18.40;63.20;;;;;;5986311;23;20154;-85
2024/02/25 20:49:34;;;;;;;3.28;1.05;;;18.30;63.80;;;;;;5909897;24;20187;-84
2024/02/25 20:52:02;;;;;;;3.70;1.00;;;18.30;64.20;;;;;;5903081;24;20230;-84
2024/02/25 20:54:55;;;;;;;1.35;0.98;;;18.30;63.90;;;;;;5864059;24;20158;-84
2024/02/25 20:57:28;;;;;;;2.70;1.20;;;18.20;64.20;;;;;;5864467;24;20162;-84
2024/02/25 20:59:56;;;;;;;1.83;1.00;;;18.20;64.40;;;;;;5865971;24;20175;-85
2024/02/25 21:02:40;;;;;;;;;;;;;;;;;;;;;
2024/02/25 21:05:16;;;;;;;4.72;0.85;;;18.20;64.60;;;;;;5807316;24;20254;-84
2024/02/25 21:07:51;;;;;;;2.28;1.10;;;18.20;64.60;;;;;;5798966;24;20494;-85
2024/02/25 21:10:23;;;;;;;2.60;1.00;;;18.20;64.10;;;;;;5793917;24;20605;-85
2024/02/25 21:12:58;;;;;;;3.03;0.98;;;18.20;64.20;;;;;;5790425;24;20164;-84
2024/02/25 21:15:33;;;;;;;2.40;0.90;;;18.20;65.00;;;;;;5860034;24;20545;-85
2024/02/25 21:18:05;;;;;;;1.35;0.75;;;18.10;65.00;;;;;;5891448;24;20166;-85
2024/02/25 21:20:47;;;;;;;3.60;0.85;;;18.10;65.30;;;;;;5938147;24;21152;-85
2024/02/25 21:23:47;;;;;;;3.35;1.10;;;18.10;65.40;;;;;;5940501;24;20167;-85
2024/02/25 21:26:24;;;;;;;4.43;0.93;;;18.10;65.40;;;;;;5832152;24;20177;-85
2024/02/25 21:28:59;;;;;;;2.72;0.82;;;18.00;65.40;;;;;;5884157;24;20185;-84
2024/02/25 21:31:33;;;;;;;2.65;0.90;;;18.00;65.40;;;;;;5891801;24;20173;-85
2024/02/25 21:34:08;;;;;;;2.00;0.98;;;18.00;65.60;;;;;;5891441;24;20213;-83
2024/02/25 21:36:39;;;;;;;3.00;0.90;;;18.00;65.40;;;;;;5947549;24;20164;-84
2024/02/25 21:39:08;;;;;;;3.55;0.98;;;18.00;65.20;;;;;;5947160;24;20168;-84
2024/02/25 21:41:38;;;;;;;1.52;0.90;;;18.00;65.40;;;;;;5983756;23;20159;-85
2024/02/25 21:44:28;;;;;;;2.33;0.88;;;18.00;64.70;;;;;;5956217;24;20385;-85
2024/02/25 21:47:03;;;;;;;1.63;0.82;;;18.10;65.00;;;;;;5980029;23;20663;-85
2024/02/25 21:49:28;;;;;;;1.90;1.00;;;18.10;65.20;;;;;;5946874;24;20267;-84
2024/02/25 21:52:03;;;;;;;1.75;0.65;;;18.10;65.00;;;;;;5929845;24;20188;-84
2024/02/25 21:54:34;;;;;;;1.23;0.85;;;18.00;65.30;;;;;;5996558;23;20166;-84
2024/02/25 21:57:03;;;;;;;0.70;0.60;;;18.10;65.40;;;;;;5980118;24;20157;-84
2024/02/25 21:59:32;;;;;;;3.42;1.00;;;18.00;65.40;;;;;;5979366;24;20231;-84
2024/02/25 22:02:10;;;;;;;4.22;0.80;;;17.90;65.70;;;;;;6020037;23;20907;-85
2024/02/25 22:04:42;;;;;;;1.08;0.75;;;17.90;65.70;;;;;;6036411;23;20267;-83
2024/02/25 22:07:13;;;;;;;2.50;0.90;;;17.90;65.60;;;;;;6036369;23;20154;-84
2024/02/25 22:09:42;;;;;;;0.93;0.80;;;17.90;65.60;;;;;;6012292;23;20221;-85
2024/02/25 22:12:11;;;;;;;2.58;0.82;;;17.90;65.20;;;;;;6011904;23;20630;-84
2024/02/25 22:14:45;;;;;;;2.17;1.08;;;17.90;65.40;;;;;;5950943;24;20204;-85
2024/02/25 22:17:12;;;;;;;1.35;0.85;;;17.90;65.60;;;;;;5975090;24;20167;-84
2024/02/25 22:19:39;;;;;;;1.25;0.90;;;18.00;65.60;;;;;;5955993;24;20548;-85
2024/02/25 22:25:38;;;;;;;2.53;0.80;;;17.90;65.70;;;;;;5980051;24;20173;-84
2024/02/25 22:28:26;;;;;;;1.75;0.80;;;17.80;65.80;;;;;;5951089;24;20545;-84
2024/02/25 22:31:10;;;;;;;3.30;1.00;;;17.80;65.80;;;;;;5951979;24;20275;-84
2024/02/25 22:33:54;;;;;;;1.05;0.93;;;17.90;65.90;;;;;;5951704;24;20172;-84
2024/02/25 22:36:39;;;;;;;1.13;0.80;;;17.80;66.00;;;;;;5951930;24;20159;-84